sensor_id;sensor_type;location;lat;lon;timestamp;temperature;humidity
4433;DHT22;2229;48.708;9.706;2022-11-13T00:01:46;5.20;99.90
4433;DHT22;2229;48.708;9.706;2022-11-13T00:04:33;5.50;99.90
4433;DHT22;2229;48.708;9.706;2022-11-13T00:07:19;5.30;99.90
4433;DHT22;2229;48.708;9.706;2022-11-13T00:10:05;5.30;99.90
4433;DHT22;2229;48.708;9.706;2022-11-13T00:12:51;5.30;99.90
4433;DHT22;2229;48.708;9.706;2022-11-13T00:15:37;5.40;99.90
4433;DHT22;2229;48.708;9.706;2022-11-13T00:18:23;5.40;99.90
4433;DHT22;2229;48.708;9.706;2022-11-13T00:21:13;5.40;99.90
4433;DHT22;2229;48.708;9.706;2022-11-13T00:23:59;5.60;99.90
4433;DHT22;2229;48.708;9.706;2022-11-13T00:27:03;5.40;99.90
4433;DHT22;2229;48.708;9.706;2022-11-13T00:29:49;5.50;99.90
4433;DHT22;2229;48.708;9.706;2022-11-13T00:32:34;5.50;99.90
4433;DHT22;2229;48.708;9.706;2022-11-13T00:35:21;5.50;99.90
4433;DHT22;2229;48.708;9.706;2022-11-13T00:38:08;5.50;99.90
4433;DHT22;2229;48.708;9.706;2022-11-13T00:40:54;5.60;99.90
4433;DHT22;2229;48.708;9.706;2022-11-13T00:43:40;5.50;99.90
4433;DHT22;2229;48.708;9.706;2022-11-13T00:46:26;5.60;99.90
4433;DHT22;2229;48.708;9.706;2022-11-13T00:49:12;5.40;99.90
4433;DHT22;2229;48.708;9.706;2022-11-13T00:51:58;5.50;99.90
4433;DHT22;2229;48.708;9.706;2022-11-13T00:54:47;5.50;99.90
4433;DHT22;2229;48.708;9.706;2022-11-13T00:57:33;5.50;99.90
4433;DHT22;2229;48.708;9.706;2022-11-13T01:00:19;5.50;99.90
4433;DHT22;2229;48.708;9.706;2022-11-13T01:03:05;5.40;99.90
4433;DHT22;2229;48.708;9.706;2022-11-13T01:05:50;5.40;99.90
4433;DHT22;2229;48.708;9.706;2022-11-13T01:08:36;5.40;99.90
4433;DHT22;2229;48.708;9.706;2022-11-13T01:11:25;5.40;99.90
4433;DHT22;2229;48.708;9.706;2022-11-13T01:14:12;5.50;99.90
4433;DHT22;2229;48.708;9.706;2022-11-13T01:16:58;5.50;99.90
4433;DHT22;2229;48.708;9.706;2022-11-13T01:19:44;5.60;99.90
4433;DHT22;2229;48.708;9.706;2022-11-13T01:22:30;5.50;99.90
4433;DHT22;2229;48.708;9.706;2022-11-13T01:25:16;5.50;99.90
4433;DHT22;2229;48.708;9.706;2022-11-13T01:28:04;5.70;99.90
4433;DHT22;2229;48.708;9.706;2022-11-13T01:30:50;5.70;99.90
4433;DHT22;2229;48.708;9.706;2022-11-13T01:33:36;5.40;99.90
4433;DHT22;2229;48.708;9.706;2022-11-13T01:36:23;5.60;99.90
4433;DHT22;2229;48.708;9.706;2022-11-13T01:39:10;5.40;99.90
4433;DHT22;2229;48.708;9.706;2022-11-13T01:41:56;5.30;99.90
4433;DHT22;2229;48.708;9.706;2022-11-13T01:44:49;5.30;99.90
4433;DHT22;2229;48.708;9.706;2022-11-13T01:47:35;5.30;99.90
4433;DHT22;2229;48.708;9.706;2022-11-13T01:50:21;5.40;99.90
4433;DHT22;2229;48.708;9.706;2022-11-13T01:53:27;5.30;99.90
4433;DHT22;2229;48.708;9.706;2022-11-13T01:56:14;5.10;99.90
4433;DHT22;2229;48.708;9.706;2022-11-13T01:59:05;5.20;99.90
4433;DHT22;2229;48.708;9.706;2022-11-13T02:01:55;5.10;99.90
4433;DHT22;2229;48.708;9.706;2022-11-13T02:04:41;5.00;99.90
4433;DHT22;2229;48.708;9.706;2022-11-13T02:07:28;4.90;99.90
4433;DHT22;2229;48.708;9.706;2022-11-13T02:10:14;4.90;99.90
4433;DHT22;2229;48.708;9.706;2022-11-13T02:13:00;5.00;99.90
4433;DHT22;2229;48.708;9.706;2022-11-13T02:15:47;4.80;99.90
4433;DHT22;2229;48.708;9.706;2022-11-13T02:18:35;4.90;99.90
4433;DHT22;2229;48.708;9.706;2022-11-13T02:21:31;4.90;99.90
4433;DHT22;2229;48.708;9.706;2022-11-13T02:24:26;4.80;99.90
4433;DHT22;2229;48.708;9.706;2022-11-13T02:27:25;4.90;99.90
4433;DHT22;2229;48.708;9.706;2022-11-13T02:30:14;4.80;99.90
4433;DHT22;2229;48.708;9.706;2022-11-13T02:33:00;4.70;99.90
4433;DHT22;2229;48.708;9.706;2022-11-13T02:35:46;5.50;99.90
4433;DHT22;2229;48.708;9.706;2022-11-13T02:38:32;4.90;99.90
4433;DHT22;2229;48.708;9.706;2022-11-13T02:41:21;4.90;99.90
4433;DHT22;2229;48.708;9.706;2022-11-13T02:44:07;4.90;99.90
4433;DHT22;2229;48.708;9.706;2022-11-13T02:46:53;4.90;99.90
4433;DHT22;2229;48.708;9.706;2022-11-13T02:49:38;5.10;99.90
4433;DHT22;2229;48.708;9.706;2022-11-13T02:52:24;5.10;99.90
4433;DHT22;2229;48.708;9.706;2022-11-13T02:55:10;5.10;99.90
4433;DHT22;2229;48.708;9.706;2022-11-13T02:57:58;5.20;99.90
4433;DHT22;2229;48.708;9.706;2022-11-13T03:00:44;4.80;99.90
4433;DHT22;2229;48.708;9.706;2022-11-13T03:03:30;5.10;99.90
4433;DHT22;2229;48.708;9.706;2022-11-13T03:06:16;5.20;99.90
4433;DHT22;2229;48.708;9.706;2022-11-13T03:09:02;5.00;99.90
4433;DHT22;2229;48.708;9.706;2022-11-13T03:11:48;5.20;99.90
4433;DHT22;2229;48.708;9.706;2022-11-13T03:14:35;5.30;99.90
4433;DHT22;2229;48.708;9.706;2022-11-13T03:17:21;5.40;99.90
4433;DHT22;2229;48.708;9.706;2022-11-13T03:20:07;5.50;99.90
4433;DHT22;2229;48.708;9.706;2022-11-13T03:22:53;5.50;99.90
4433;DHT22;2229;48.708;9.706;2022-11-13T03:25:39;5.50;99.90
4433;DHT22;2229;48.708;9.706;2022-11-13T03:28:25;5.70;99.90
4433;DHT22;2229;48.708;9.706;2022-11-13T03:31:11;5.50;99.90
4433;DHT22;2229;48.708;9.706;2022-11-13T03:33:58;5.80;99.90
4433;DHT22;2229;48.708;9.706;2022-11-13T03:36:44;5.80;99.90
4433;DHT22;2229;48.708;9.706;2022-11-13T03:39:29;5.70;99.90
4433;DHT22;2229;48.708;9.706;2022-11-13T03:42:18;5.60;99.90
4433;DHT22;2229;48.708;9.706;2022-11-13T03:45:04;5.50;99.90
4433;DHT22;2229;48.708;9.706;2022-11-13T03:47:51;5.10;99.90
4433;DHT22;2229;48.708;9.706;2022-11-13T03:50:37;5.60;99.90
4433;DHT22;2229;48.708;9.706;2022-11-13T03:53:23;5.40;99.90
4433;DHT22;2229;48.708;9.706;2022-11-13T03:56:09;5.30;99.90
4433;DHT22;2229;48.708;9.706;2022-11-13T03:58:55;5.30;99.90
4433;DHT22;2229;48.708;9.706;2022-11-13T04:01:41;5.30;99.90
4433;DHT22;2229;48.708;9.706;2022-11-13T04:04:28;5.30;99.90
4433;DHT22;2229;48.708;9.706;2022-11-13T04:07:14;5.20;99.90
4433;DHT22;2229;48.708;9.706;2022-11-13T04:10:00;5.10;99.90
4433;DHT22;2229;48.708;9.706;2022-11-13T04:12:46;5.20;99.90
4433;DHT22;2229;48.708;9.706;2022-11-13T04:15:32;5.20;99.90
4433;DHT22;2229;48.708;9.706;2022-11-13T04:18:18;5.20;99.90
4433;DHT22;2229;48.708;9.706;2022-11-13T04:21:05;5.20;99.90
4433;DHT22;2229;48.708;9.706;2022-11-13T04:23:51;5.20;99.90
4433;DHT22;2229;48.708;9.706;2022-11-13T04:26:37;5.20;99.90
4433;DHT22;2229;48.708;9.706;2022-11-13T04:29:23;5.10;99.90
4433;DHT22;2229;48.708;9.706;2022-11-13T04:32:08;5.10;99.90
4433;DHT22;2229;48.708;9.706;2022-11-13T04:34:54;5.10;99.90
4433;DHT22;2229;48.708;9.706;2022-11-13T04:37:41;5.10;99.90
4433;DHT22;2229;48.708;9.706;2022-11-13T04:40:27;5.00;99.90
4433;DHT22;2229;48.708;9.706;2022-11-13T04:43:13;5.00;99.90
4433;DHT22;2229;48.708;9.706;2022-11-13T04:45:58;4.90;99.90
4433;DHT22;2229;48.708;9.706;2022-11-13T04:48:43;4.90;99.90
4433;DHT22;2229;48.708;9.706;2022-11-13T04:51:29;4.90;99.90
4433;DHT22;2229;48.708;9.706;2022-11-13T04:54:18;4.90;99.90
4433;DHT22;2229;48.708;9.706;2022-11-13T04:57:03;4.80;99.90
4433;DHT22;2229;48.708;9.706;2022-11-13T04:59:50;4.80;99.90
4433;DHT22;2229;48.708;9.706;2022-11-13T05:02:39;4.80;99.90
4433;DHT22;2229;48.708;9.706;2022-11-13T05:05:25;4.70;99.90
4433;DHT22;2229;48.708;9.706;2022-11-13T05:08:11;4.70;99.90
4433;DHT22;2229;48.708;9.706;2022-11-13T05:10:58;4.60;99.90
4433;DHT22;2229;48.708;9.706;2022-11-13T05:13:44;4.60;99.90
4433;DHT22;2229;48.708;9.706;2022-11-13T05:16:30;4.60;99.90
4433;DHT22;2229;48.708;9.706;2022-11-13T05:19:16;4.60;99.90
4433;DHT22;2229;48.708;9.706;2022-11-13T05:22:04;4.60;99.90
4433;DHT22;2229;48.708;9.706;2022-11-13T05:24:50;4.70;99.90
4433;DHT22;2229;48.708;9.706;2022-11-13T05:27:37;4.70;99.90
4433;DHT22;2229;48.708;9.706;2022-11-13T05:30:24;4.70;99.90
4433;DHT22;2229;48.708;9.706;2022-11-13T05:33:09;4.80;99.90
4433;DHT22;2229;48.708;9.706;2022-11-13T05:36:00;4.80;99.90
4433;DHT22;2229;48.708;9.706;2022-11-13T05:38:46;4.80;99.90
4433;DHT22;2229;48.708;9.706;2022-11-13T05:41:32;4.80;99.90
4433;DHT22;2229;48.708;9.706;2022-11-13T05:44:20;4.80;99.90
4433;DHT22;2229;48.708;9.706;2022-11-13T05:47:08;4.80;99.90
4433;DHT22;2229;48.708;9.706;2022-11-13T05:49:55;4.80;99.90
4433;DHT22;2229;48.708;9.706;2022-11-13T05:52:41;4.80;99.90
4433;DHT22;2229;48.708;9.706;2022-11-13T05:55:27;4.90;99.90
4433;DHT22;2229;48.708;9.706;2022-11-13T05:58:13;4.90;99.90
4433;DHT22;2229;48.708;9.706;2022-11-13T06:01:18;4.90;99.90
4433;DHT22;2229;48.708;9.706;2022-11-13T06:04:22;4.90;99.90
4433;DHT22;2229;48.708;9.706;2022-11-13T06:07:08;5.00;99.90
4433;DHT22;2229;48.708;9.706;2022-11-13T06:09:54;5.00;99.90
4433;DHT22;2229;48.708;9.706;2022-11-13T06:12:39;4.90;99.90
4433;DHT22;2229;48.708;9.706;2022-11-13T06:15:26;4.90;99.90
4433;DHT22;2229;48.708;9.706;2022-11-13T06:18:20;4.90;99.90
4433;DHT22;2229;48.708;9.706;2022-11-13T06:21:08;4.90;99.90
4433;DHT22;2229;48.708;9.706;2022-11-13T06:23:56;5.10;99.90
4433;DHT22;2229;48.708;9.706;2022-11-13T06:26:43;4.80;99.90
4433;DHT22;2229;48.708;9.706;2022-11-13T06:29:29;4.80;99.90
4433;DHT22;2229;48.708;9.706;2022-11-13T06:32:15;4.70;99.90
4433;DHT22;2229;48.708;9.706;2022-11-13T06:35:03;4.70;99.90
4433;DHT22;2229;48.708;9.706;2022-11-13T06:37:49;4.70;99.90
4433;DHT22;2229;48.708;9.706;2022-11-13T06:40:36;4.70;99.90
4433;DHT22;2229;48.708;9.706;2022-11-13T06:43:24;4.70;99.90
4433;DHT22;2229;48.708;9.706;2022-11-13T06:46:12;4.60;99.90
4433;DHT22;2229;48.708;9.706;2022-11-13T06:49:00;4.50;99.90
4433;DHT22;2229;48.708;9.706;2022-11-13T06:51:47;4.50;99.90
4433;DHT22;2229;48.708;9.706;2022-11-13T06:54:33;4.40;99.90
4433;DHT22;2229;48.708;9.706;2022-11-13T06:57:19;4.40;99.90
4433;DHT22;2229;48.708;9.706;2022-11-13T07:00:05;4.40;99.90
4433;DHT22;2229;48.708;9.706;2022-11-13T07:02:52;4.40;99.90
4433;DHT22;2229;48.708;9.706;2022-11-13T07:05:38;4.50;99.90
4433;DHT22;2229;48.708;9.706;2022-11-13T07:08:24;4.50;99.90
4433;DHT22;2229;48.708;9.706;2022-11-13T07:11:13;4.60;99.90
4433;DHT22;2229;48.708;9.706;2022-11-13T07:14:00;4.60;99.90
4433;DHT22;2229;48.708;9.706;2022-11-13T07:16:46;4.70;99.90
4433;DHT22;2229;48.708;9.706;2022-11-13T07:19:32;4.80;99.90
4433;DHT22;2229;48.708;9.706;2022-11-13T07:22:18;4.90;99.90
4433;DHT22;2229;48.708;9.706;2022-11-13T07:25:07;5.00;99.90
4433;DHT22;2229;48.708;9.706;2022-11-13T07:27:53;5.10;99.90
4433;DHT22;2229;48.708;9.706;2022-11-13T07:30:40;5.30;99.90
4433;DHT22;2229;48.708;9.706;2022-11-13T07:33:26;5.40;99.90
4433;DHT22;2229;48.708;9.706;2022-11-13T07:36:11;5.50;99.90
4433;DHT22;2229;48.708;9.706;2022-11-13T07:38:57;5.70;99.90
4433;DHT22;2229;48.708;9.706;2022-11-13T07:41:46;5.90;99.90
4433;DHT22;2229;48.708;9.706;2022-11-13T07:44:32;6.20;99.90
4433;DHT22;2229;48.708;9.706;2022-11-13T07:47:18;6.70;99.90
4433;DHT22;2229;48.708;9.706;2022-11-13T07:50:04;7.30;99.90
4433;DHT22;2229;48.708;9.706;2022-11-13T07:52:54;7.80;99.90
4433;DHT22;2229;48.708;9.706;2022-11-13T07:55:39;8.30;99.90
4433;DHT22;2229;48.708;9.706;2022-11-13T07:58:28;8.90;99.90
4433;DHT22;2229;48.708;9.706;2022-11-13T08:01:13;9.90;99.90
4433;DHT22;2229;48.708;9.706;2022-11-13T08:03:59;11.20;99.90
4433;DHT22;2229;48.708;9.706;2022-11-13T08:06:45;12.60;98.70
4433;DHT22;2229;48.708;9.706;2022-11-13T08:09:41;14.10;96.70
4433;DHT22;2229;48.708;9.706;2022-11-13T08:12:27;15.60;92.70
4433;DHT22;2229;48.708;9.706;2022-11-13T08:15:14;17.10;90.90
4433;DHT22;2229;48.708;9.706;2022-11-13T08:18:01;18.70;85.00
4433;DHT22;2229;48.708;9.706;2022-11-13T08:20:47;20.30;78.90
4433;DHT22;2229;48.708;9.706;2022-11-13T08:23:34;21.90;75.20
4433;DHT22;2229;48.708;9.706;2022-11-13T08:26:20;23.30;69.20
4433;DHT22;2229;48.708;9.706;2022-11-13T08:29:06;24.40;60.40
4433;DHT22;2229;48.708;9.706;2022-11-13T08:31:57;25.60;58.50
4433;DHT22;2229;48.708;9.706;2022-11-13T08:34:44;26.30;54.70
4433;DHT22;2229;48.708;9.706;2022-11-13T08:37:30;26.90;53.50
4433;DHT22;2229;48.708;9.706;2022-11-13T08:40:17;27.50;52.00
4433;DHT22;2229;48.708;9.706;2022-11-13T08:43:03;27.80;46.60
4433;DHT22;2229;48.708;9.706;2022-11-13T08:45:49;28.00;48.10
4433;DHT22;2229;48.708;9.706;2022-11-13T08:48:36;28.50;48.00
4433;DHT22;2229;48.708;9.706;2022-11-13T08:51:23;29.20;47.20
4433;DHT22;2229;48.708;9.706;2022-11-13T08:54:09;29.70;45.30
4433;DHT22;2229;48.708;9.706;2022-11-13T08:56:55;30.10;46.20
4433;DHT22;2229;48.708;9.706;2022-11-13T08:59:44;30.60;45.70
4433;DHT22;2229;48.708;9.706;2022-11-13T09:02:30;30.90;43.20
4433;DHT22;2229;48.708;9.706;2022-11-13T09:05:17;30.80;41.60
4433;DHT22;2229;48.708;9.706;2022-11-13T09:08:03;30.90;41.50
4433;DHT22;2229;48.708;9.706;2022-11-13T09:10:49;31.30;42.40
4433;DHT22;2229;48.708;9.706;2022-11-13T09:13:36;31.70;42.20
4433;DHT22;2229;48.708;9.706;2022-11-13T09:16:23;32.00;41.70
4433;DHT22;2229;48.708;9.706;2022-11-13T09:19:08;32.20;40.50
4433;DHT22;2229;48.708;9.706;2022-11-13T09:21:56;32.20;38.90
4433;DHT22;2229;48.708;9.706;2022-11-13T09:24:53;32.30;40.70
4433;DHT22;2229;48.708;9.706;2022-11-13T09:27:38;32.40;39.50
4433;DHT22;2229;48.708;9.706;2022-11-13T09:30:27;32.20;38.70
4433;DHT22;2229;48.708;9.706;2022-11-13T09:33:13;32.00;37.30
4433;DHT22;2229;48.708;9.706;2022-11-13T09:36:00;31.20;35.40
4433;DHT22;2229;48.708;9.706;2022-11-13T09:38:48;30.50;37.30
4433;DHT22;2229;48.708;9.706;2022-11-13T09:41:37;30.20;39.00
4433;DHT22;2229;48.708;9.706;2022-11-13T09:44:29;30.20;39.20
4433;DHT22;2229;48.708;9.706;2022-11-13T09:47:20;30.60;39.70
4433;DHT22;2229;48.708;9.706;2022-11-13T09:50:16;30.80;38.80
4433;DHT22;2229;48.708;9.706;2022-11-13T09:53:02;30.80;39.20
4433;DHT22;2229;48.708;9.706;2022-11-13T09:55:58;30.90;39.00
4433;DHT22;2229;48.708;9.706;2022-11-13T09:58:48;30.80;38.60
4433;DHT22;2229;48.708;9.706;2022-11-13T10:01:46;30.70;38.40
4433;DHT22;2229;48.708;9.706;2022-11-13T10:04:47;30.80;38.70
4433;DHT22;2229;48.708;9.706;2022-11-13T10:07:39;30.80;38.00
4433;DHT22;2229;48.708;9.706;2022-11-13T10:10:44;30.90;38.50
4433;DHT22;2229;48.708;9.706;2022-11-13T10:13:39;31.00;38.20
4433;DHT22;2229;48.708;9.706;2022-11-13T10:16:52;30.60;37.00
4433;DHT22;2229;48.708;9.706;2022-11-13T10:19:52;29.90;36.30
4433;DHT22;2229;48.708;9.706;2022-11-13T10:22:42;29.30;37.40
4433;DHT22;2229;48.708;9.706;2022-11-13T10:25:35;29.10;37.30
4433;DHT22;2229;48.708;9.706;2022-11-13T10:28:24;29.00;38.10
4433;DHT22;2229;48.708;9.706;2022-11-13T10:31:22;29.20;38.90
4433;DHT22;2229;48.708;9.706;2022-11-13T10:34:12;29.30;38.40
4433;DHT22;2229;48.708;9.706;2022-11-13T10:37:10;29.20;38.30
4433;DHT22;2229;48.708;9.706;2022-11-13T10:39:58;28.10;37.70
4433;DHT22;2229;48.708;9.706;2022-11-13T10:42:44;27.30;39.10
4433;DHT22;2229;48.708;9.706;2022-11-13T10:45:30;26.10;39.10
4433;DHT22;2229;48.708;9.706;2022-11-13T10:48:50;24.90;40.10
4433;DHT22;2229;48.708;9.706;2022-11-13T10:51:36;23.90;41.30
4433;DHT22;2229;48.708;9.706;2022-11-13T10:54:25;23.00;41.90
4433;DHT22;2229;48.708;9.706;2022-11-13T10:57:22;22.30;42.50
4433;DHT22;2229;48.708;9.706;2022-11-13T11:00:22;21.50;43.20
4433;DHT22;2229;48.708;9.706;2022-11-13T11:03:14;20.80;44.50
4433;DHT22;2229;48.708;9.706;2022-11-13T11:06:03;20.40;45.30
4433;DHT22;2229;48.708;9.706;2022-11-13T11:09:07;19.90;45.50
4433;DHT22;2229;48.708;9.706;2022-11-13T11:12:08;19.40;46.50
4433;DHT22;2229;48.708;9.706;2022-11-13T11:15:17;18.70;47.50
4433;DHT22;2229;48.708;9.706;2022-11-13T11:18:12;18.00;48.60
4433;DHT22;2229;48.708;9.706;2022-11-13T11:21:06;17.40;49.50
4433;DHT22;2229;48.708;9.706;2022-11-13T11:23:58;17.10;50.20
4433;DHT22;2229;48.708;9.706;2022-11-13T11:26:52;16.70;50.70
4433;DHT22;2229;48.708;9.706;2022-11-13T11:29:44;16.40;51.50
4433;DHT22;2229;48.708;9.706;2022-11-13T11:32:37;16.10;52.30
4433;DHT22;2229;48.708;9.706;2022-11-13T11:35:30;15.90;52.80
4433;DHT22;2229;48.708;9.706;2022-11-13T11:38:23;15.90;53.60
4433;DHT22;2229;48.708;9.706;2022-11-13T11:41:16;16.20;53.90
4433;DHT22;2229;48.708;9.706;2022-11-13T11:44:13;16.50;53.80
4433;DHT22;2229;48.708;9.706;2022-11-13T11:47:00;16.70;53.60
4433;DHT22;2229;48.708;9.706;2022-11-13T11:49:46;17.00;53.40
4433;DHT22;2229;48.708;9.706;2022-11-13T11:52:51;17.10;53.20
4433;DHT22;2229;48.708;9.706;2022-11-13T11:55:50;17.10;53.50
4433;DHT22;2229;48.708;9.706;2022-11-13T12:02:48;16.70;53.40
4433;DHT22;2229;48.708;9.706;2022-11-13T12:05:52;16.40;54.00
4433;DHT22;2229;48.708;9.706;2022-11-13T12:08:47;16.00;54.50
4433;DHT22;2229;48.708;9.706;2022-11-13T12:11:40;15.80;55.40
4433;DHT22;2229;48.708;9.706;2022-11-13T12:14:34;15.60;55.80
4433;DHT22;2229;48.708;9.706;2022-11-13T12:17:40;15.50;56.10
4433;DHT22;2229;48.708;9.706;2022-11-13T12:20:34;15.60;56.60
4433;DHT22;2229;48.708;9.706;2022-11-13T12:23:31;15.60;56.60
4433;DHT22;2229;48.708;9.706;2022-11-13T12:26:23;15.70;56.80
4433;DHT22;2229;48.708;9.706;2022-11-13T12:29:25;15.80;57.00
4433;DHT22;2229;48.708;9.706;2022-11-13T12:32:23;15.90;57.30
4433;DHT22;2229;48.708;9.706;2022-11-13T12:35:15;16.00;57.40
4433;DHT22;2229;48.708;9.706;2022-11-13T12:38:12;16.00;57.40
4433;DHT22;2229;48.708;9.706;2022-11-13T12:41:06;15.60;57.10
4433;DHT22;2229;48.708;9.706;2022-11-13T12:44:05;15.90;57.30
4433;DHT22;2229;48.708;9.706;2022-11-13T12:46:56;15.90;57.50
4433;DHT22;2229;48.708;9.706;2022-11-13T12:49:44;15.90;57.50
4433;DHT22;2229;48.708;9.706;2022-11-13T12:52:30;16.00;58.10
4433;DHT22;2229;48.708;9.706;2022-11-13T12:55:25;16.00;58.00
4433;DHT22;2229;48.708;9.706;2022-11-13T12:58:19;15.80;58.00
4433;DHT22;2229;48.708;9.706;2022-11-13T13:01:16;16.10;58.30
4433;DHT22;2229;48.708;9.706;2022-11-13T13:04:30;16.10;58.50
4433;DHT22;2229;48.708;9.706;2022-11-13T13:07:32;16.10;58.30
4433;DHT22;2229;48.708;9.706;2022-11-13T13:10:28;16.20;58.40
4433;DHT22;2229;48.708;9.706;2022-11-13T13:13:41;16.20;58.40
4433;DHT22;2229;48.708;9.706;2022-11-13T13:16:29;16.20;58.60
4433;DHT22;2229;48.708;9.706;2022-11-13T13:19:27;16.20;59.00
4433;DHT22;2229;48.708;9.706;2022-11-13T13:22:25;16.20;59.10
4433;DHT22;2229;48.708;9.706;2022-11-13T13:25:24;16.10;58.70
4433;DHT22;2229;48.708;9.706;2022-11-13T13:28:19;16.10;59.00
4433;DHT22;2229;48.708;9.706;2022-11-13T13:31:21;16.00;59.10
4433;DHT22;2229;48.708;9.706;2022-11-13T13:34:42;16.00;59.10
4433;DHT22;2229;48.708;9.706;2022-11-13T13:37:36;15.90;59.20
4433;DHT22;2229;48.708;9.706;2022-11-13T13:40:34;15.80;59.10
4433;DHT22;2229;48.708;9.706;2022-11-13T13:43:31;15.60;59.20
4433;DHT22;2229;48.708;9.706;2022-11-13T13:46:23;15.60;59.50
4433;DHT22;2229;48.708;9.706;2022-11-13T13:49:13;15.60;59.70
4433;DHT22;2229;48.708;9.706;2022-11-13T13:52:02;15.60;59.70
4433;DHT22;2229;48.708;9.706;2022-11-13T13:54:48;15.50;59.80
4433;DHT22;2229;48.708;9.706;2022-11-13T13:57:39;15.40;60.10
4433;DHT22;2229;48.708;9.706;2022-11-13T14:00:26;15.40;60.30
4433;DHT22;2229;48.708;9.706;2022-11-13T14:03:18;15.30;60.50
4433;DHT22;2229;48.708;9.706;2022-11-13T14:06:16;15.20;60.70
4433;DHT22;2229;48.708;9.706;2022-11-13T14:09:09;15.20;61.00
4433;DHT22;2229;48.708;9.706;2022-11-13T14:11:56;15.10;61.20
4433;DHT22;2229;48.708;9.706;2022-11-13T14:14:42;15.00;61.40
4433;DHT22;2229;48.708;9.706;2022-11-13T14:17:28;15.00;61.90
4433;DHT22;2229;48.708;9.706;2022-11-13T14:20:18;14.90;62.30
4433;DHT22;2229;48.708;9.706;2022-11-13T14:23:20;14.70;62.50
4433;DHT22;2229;48.708;9.706;2022-11-13T14:26:09;14.60;63.10
4433;DHT22;2229;48.708;9.706;2022-11-13T14:29:00;14.50;63.20
4433;DHT22;2229;48.708;9.706;2022-11-13T14:31:47;14.40;63.60
4433;DHT22;2229;48.708;9.706;2022-11-13T14:34:34;14.30;64.20
4433;DHT22;2229;48.708;9.706;2022-11-13T14:37:23;14.10;64.70
4433;DHT22;2229;48.708;9.706;2022-11-13T14:40:17;14.00;65.10
4433;DHT22;2229;48.708;9.706;2022-11-13T14:43:07;13.80;65.30
4433;DHT22;2229;48.708;9.706;2022-11-13T14:46:01;13.70;65.70
4433;DHT22;2229;48.708;9.706;2022-11-13T14:48:52;13.60;66.20
4433;DHT22;2229;48.708;9.706;2022-11-13T14:51:39;13.80;67.10
4433;DHT22;2229;48.708;9.706;2022-11-13T14:54:30;13.30;67.10
4433;DHT22;2229;48.708;9.706;2022-11-13T14:57:17;13.20;67.60
4433;DHT22;2229;48.708;9.706;2022-11-13T15:00:15;13.10;68.00
4433;DHT22;2229;48.708;9.706;2022-11-13T15:03:03;12.90;68.30
4433;DHT22;2229;48.708;9.706;2022-11-13T15:05:51;12.80;68.80
4433;DHT22;2229;48.708;9.706;2022-11-13T15:08:37;12.70;69.20
4433;DHT22;2229;48.708;9.706;2022-11-13T15:11:24;12.80;69.80
4433;DHT22;2229;48.708;9.706;2022-11-13T15:14:15;12.70;69.60
4433;DHT22;2229;48.708;9.706;2022-11-13T15:17:03;12.60;69.70
4433;DHT22;2229;48.708;9.706;2022-11-13T15:19:51;12.50;70.00
4433;DHT22;2229;48.708;9.706;2022-11-13T15:22:39;12.50;70.30
4433;DHT22;2229;48.708;9.706;2022-11-13T15:25:25;12.40;70.40
4433;DHT22;2229;48.708;9.706;2022-11-13T15:28:11;12.30;71.50
4433;DHT22;2229;48.708;9.706;2022-11-13T15:30:57;12.10;71.30
4433;DHT22;2229;48.708;9.706;2022-11-13T15:33:44;12.00;71.60
4433;DHT22;2229;48.708;9.706;2022-11-13T15:36:31;11.90;72.10
4433;DHT22;2229;48.708;9.706;2022-11-13T15:39:17;11.80;72.30
4433;DHT22;2229;48.708;9.706;2022-11-13T15:42:05;11.80;72.30
4433;DHT22;2229;48.708;9.706;2022-11-13T15:44:51;11.70;72.60
4433;DHT22;2229;48.708;9.706;2022-11-13T15:47:37;11.60;73.40
4433;DHT22;2229;48.708;9.706;2022-11-13T15:50:28;11.50;74.50
4433;DHT22;2229;48.708;9.706;2022-11-13T15:53:14;11.40;74.50
4433;DHT22;2229;48.708;9.706;2022-11-13T15:56:05;11.30;75.10
4433;DHT22;2229;48.708;9.706;2022-11-13T15:58:50;11.20;75.10
4433;DHT22;2229;48.708;9.706;2022-11-13T16:01:36;11.40;75.80
4433;DHT22;2229;48.708;9.706;2022-11-13T16:04:32;11.10;76.70
4433;DHT22;2229;48.708;9.706;2022-11-13T16:07:25;11.00;75.80
4433;DHT22;2229;48.708;9.706;2022-11-13T16:10:11;10.90;75.90
4433;DHT22;2229;48.708;9.706;2022-11-13T16:13:00;10.90;76.20
4433;DHT22;2229;48.708;9.706;2022-11-13T16:15:47;10.80;76.80
4433;DHT22;2229;48.708;9.706;2022-11-13T16:18:33;10.70;77.60
4433;DHT22;2229;48.708;9.706;2022-11-13T16:21:20;10.70;77.80
4433;DHT22;2229;48.708;9.706;2022-11-13T16:24:09;10.60;78.10
4433;DHT22;2229;48.708;9.706;2022-11-13T16:26:56;10.50;78.40
4433;DHT22;2229;48.708;9.706;2022-11-13T16:29:45;10.40;78.90
4433;DHT22;2229;48.708;9.706;2022-11-13T16:32:31;10.30;79.00
4433;DHT22;2229;48.708;9.706;2022-11-13T16:35:18;10.30;79.10
4433;DHT22;2229;48.708;9.706;2022-11-13T16:38:10;10.30;79.30
4433;DHT22;2229;48.708;9.706;2022-11-13T16:40:57;10.20;79.20
4433;DHT22;2229;48.708;9.706;2022-11-13T16:43:43;10.20;79.90
4433;DHT22;2229;48.708;9.706;2022-11-13T16:46:31;10.00;79.00
4433;DHT22;2229;48.708;9.706;2022-11-13T16:49:19;10.00;80.10
4433;DHT22;2229;48.708;9.706;2022-11-13T16:52:06;10.10;80.10
4433;DHT22;2229;48.708;9.706;2022-11-13T16:54:52;9.70;81.40
4433;DHT22;2229;48.708;9.706;2022-11-13T16:57:40;9.60;80.80
4433;DHT22;2229;48.708;9.706;2022-11-13T17:00:26;9.50;81.10
4433;DHT22;2229;48.708;9.706;2022-11-13T17:03:12;9.40;82.00
4433;DHT22;2229;48.708;9.706;2022-11-13T17:05:58;9.30;82.00
4433;DHT22;2229;48.708;9.706;2022-11-13T17:08:44;9.30;82.40
4433;DHT22;2229;48.708;9.706;2022-11-13T17:11:31;9.20;82.50
4433;DHT22;2229;48.708;9.706;2022-11-13T17:14:18;9.10;82.50
4433;DHT22;2229;48.708;9.706;2022-11-13T17:17:09;9.00;82.90
4433;DHT22;2229;48.708;9.706;2022-11-13T17:19:57;8.90;83.10
4433;DHT22;2229;48.708;9.706;2022-11-13T17:22:51;8.80;84.00
4433;DHT22;2229;48.708;9.706;2022-11-13T17:25:37;8.80;84.00
4433;DHT22;2229;48.708;9.706;2022-11-13T17:28:23;8.70;84.20
4433;DHT22;2229;48.708;9.706;2022-11-13T17:31:14;8.70;84.70
4433;DHT22;2229;48.708;9.706;2022-11-13T17:34:00;8.70;85.50
4433;DHT22;2229;48.708;9.706;2022-11-13T17:36:46;8.60;84.80
4433;DHT22;2229;48.708;9.706;2022-11-13T17:39:32;8.50;84.90
4433;DHT22;2229;48.708;9.706;2022-11-13T17:42:18;8.50;85.20
4433;DHT22;2229;48.708;9.706;2022-11-13T17:45:05;8.40;86.10
4433;DHT22;2229;48.708;9.706;2022-11-13T17:47:55;8.40;85.70
4433;DHT22;2229;48.708;9.706;2022-11-13T17:50:55;8.30;85.90
4433;DHT22;2229;48.708;9.706;2022-11-13T17:53:41;8.30;86.20
4433;DHT22;2229;48.708;9.706;2022-11-13T17:56:28;8.20;86.30
4433;DHT22;2229;48.708;9.706;2022-11-13T17:59:14;8.10;86.50
4433;DHT22;2229;48.708;9.706;2022-11-13T18:02:00;8.10;86.70
4433;DHT22;2229;48.708;9.706;2022-11-13T18:04:47;8.00;87.10
4433;DHT22;2229;48.708;9.706;2022-11-13T18:07:33;8.00;87.10
4433;DHT22;2229;48.708;9.706;2022-11-13T18:10:19;7.90;87.30
4433;DHT22;2229;48.708;9.706;2022-11-13T18:13:06;7.90;87.90
4433;DHT22;2229;48.708;9.706;2022-11-13T18:15:52;7.80;87.60
4433;DHT22;2229;48.708;9.706;2022-11-13T18:18:38;7.70;87.60
4433;DHT22;2229;48.708;9.706;2022-11-13T18:21:27;7.70;87.80
4433;DHT22;2229;48.708;9.706;2022-11-13T18:24:16;7.60;88.20
4433;DHT22;2229;48.708;9.706;2022-11-13T18:27:06;7.60;88.50
4433;DHT22;2229;48.708;9.706;2022-11-13T18:29:51;7.50;88.50
4433;DHT22;2229;48.708;9.706;2022-11-13T18:32:37;7.50;88.70
4433;DHT22;2229;48.708;9.706;2022-11-13T18:35:23;7.40;88.70
4433;DHT22;2229;48.708;9.706;2022-11-13T18:38:28;7.40;89.10